createdAt,value
2022-08-05T00:01:20.309Z,21.38
2022-08-05T00:02:07.419Z,21.34
2022-08-05T00:02:58.802Z,21.23
2022-08-05T00:03:57.602Z,21.23
2022-08-05T00:04:58.249Z,21.27
2022-08-05T00:06:06.404Z,21.11
2022-08-05T00:06:59.262Z,21.09
2022-08-05T00:08:01.279Z,21.14
2022-08-05T00:08:58.192Z,21.17
2022-08-05T00:09:59.249Z,21.13
2022-08-05T00:11:00.792Z,21.06
2022-08-05T00:11:59.998Z,21.11
2022-08-05T00:12:58.816Z,21.14
2022-08-05T00:13:58.949Z,21.11
2022-08-05T00:14:59.188Z,21.08
2022-08-05T00:16:00.566Z,21.14
2022-08-05T00:17:02.089Z,21.16
2022-08-05T00:17:59.777Z,21.16
2022-08-05T00:19:00.269Z,21.29
2022-08-05T00:20:02.694Z,21.27
2022-08-05T00:21:00.382Z,21.21
2022-08-05T00:22:00.606Z,21.21
2022-08-05T00:23:02.721Z,21.11
2022-08-05T00:24:10.561Z,21.11
2022-08-05T00:25:02.289Z,20.98
2022-08-05T00:26:02.335Z,20.95
2022-08-05T00:27:01.554Z,20.91
2022-08-05T00:28:01.751Z,20.91
2022-08-05T00:29:01.886Z,20.77
2022-08-05T00:30:03.173Z,20.74
2022-08-05T00:31:04.236Z,20.71
2022-08-05T00:32:13.169Z,20.71
2022-08-05T00:33:03.691Z,20.79
2022-08-05T00:34:54.485Z,20.71
2022-08-05T00:35:06.822Z,20.81
2022-08-05T00:36:15.845Z,20.79
2022-08-05T00:37:10.347Z,20.79
2022-08-05T00:38:05.261Z,20.83
2022-08-05T00:39:03.976Z,20.72
2022-08-05T00:40:04.196Z,20.71
2022-08-05T00:41:06.262Z,20.69
2022-08-05T00:42:05.453Z,20.61
2022-08-05T00:43:07.661Z,20.66
2022-08-05T00:44:04.851Z,20.64
2022-08-05T00:45:04.977Z,20.65
2022-08-05T00:46:05.173Z,20.62
2022-08-05T00:47:06.317Z,20.64
2022-08-05T00:48:06.206Z,20.74
2022-08-05T00:49:05.746Z,20.49
2022-08-05T00:50:05.885Z,20.61
2022-08-05T00:51:49.839Z,20.61
2022-08-05T00:52:07.230Z,20.65
2022-08-05T00:53:09.589Z,20.74
2022-08-05T00:54:07.511Z,20.66
2022-08-05T00:55:06.652Z,20.77
2022-08-05T00:56:07.851Z,20.81
2022-08-05T00:57:06.992Z,20.69
2022-08-05T00:58:07.146Z,20.66
2022-08-05T00:59:07.362Z,20.68
2022-08-05T01:00:07.532Z,20.66
2022-08-05T01:01:08.999Z,20.62
2022-08-05T01:02:08.915Z,20.69
2022-08-05T01:03:08.241Z,20.64
2022-08-05T01:04:14.167Z,20.62
2022-08-05T01:05:09.969Z,20.53
2022-08-05T01:06:14.193Z,20.50
2022-08-05T01:07:13.508Z,20.46
2022-08-05T01:08:40.529Z,20.53
2022-08-05T01:09:10.283Z,20.47
2022-08-05T01:10:09.406Z,20.50
2022-08-05T01:11:09.593Z,20.50
2022-08-05T01:12:18.052Z,20.43
2022-08-05T01:13:13.204Z,20.46
2022-08-05T01:14:11.135Z,20.42
2022-08-05T01:15:35.708Z,20.38
2022-08-05T01:16:11.790Z,20.24
2022-08-05T01:17:10.633Z,20.31
2022-08-05T01:18:11.562Z,20.25
2022-08-05T01:19:10.926Z,20.31
2022-08-05T01:20:11.040Z,20.24
2022-08-05T01:21:11.966Z,20.34
2022-08-05T01:22:18.685Z,20.23
2022-08-05T01:23:14.896Z,20.21
2022-08-05T01:24:13.365Z,20.28
2022-08-05T01:25:13.528Z,20.31
2022-08-05T01:26:12.778Z,20.25
2022-08-05T01:27:19.239Z,20.23
2022-08-05T01:28:13.457Z,20.23
2022-08-05T01:29:12.601Z,20.31
2022-08-05T01:30:18.655Z,20.20
2022-08-05T01:31:14.043Z,20.21
2022-08-05T01:32:18.396Z,20.24
2022-08-05T01:33:14.793Z,20.23
2022-08-05T01:34:13.472Z,20.25
2022-08-05T01:35:50.154Z,20.33
2022-08-05T01:36:16.278Z,20.28
2022-08-05T01:37:20.231Z,20.33
2022-08-05T01:38:27.016Z,20.27
2022-08-05T01:39:15.280Z,20.28
2022-08-05T01:40:17.933Z,20.27
2022-08-05T01:41:14.720Z,20.20
2022-08-05T01:42:15.283Z,20.25
2022-08-05T01:43:21.892Z,20.33
2022-08-05T01:44:16.300Z,20.34
2022-08-05T01:45:16.462Z,20.35
2022-08-05T01:46:16.264Z,20.34
2022-08-05T01:47:16.717Z,20.33
2022-08-05T01:48:15.755Z,20.33
2022-08-05T01:49:22.850Z,20.42
2022-08-05T01:50:17.379Z,20.41
2022-08-05T01:51:16.807Z,20.38
2022-08-05T01:52:18.024Z,20.49
2022-08-05T01:53:17.293Z,20.62
2022-08-05T01:54:18.297Z,20.58
2022-08-05T01:55:18.034Z,20.77
2022-08-05T01:58:10.553Z,20.74
2022-08-05T01:58:11.543Z,20.83
2022-08-05T01:58:18.542Z,20.80
2022-08-05T01:59:18.800Z,20.76
2022-08-05T02:00:18.792Z,20.81
2022-08-05T02:01:24.574Z,20.65
2022-08-05T02:02:19.315Z,20.76
2022-08-05T02:03:29.156Z,20.66
2022-08-05T02:04:19.811Z,20.64
2022-08-05T02:05:18.828Z,20.65
2022-08-05T02:06:33.531Z,20.64
2022-08-05T02:07:22.132Z,20.72
2022-08-05T02:08:29.604Z,20.69
2022-08-05T02:09:20.841Z,20.71
2022-08-05T02:10:19.625Z,20.79
2022-08-05T02:11:23.840Z,20.64
2022-08-05T02:12:21.079Z,20.77
2022-08-05T02:13:21.903Z,20.65
2022-08-05T02:14:20.485Z,20.74
2022-08-05T02:15:21.295Z,20.76
2022-08-05T02:16:22.205Z,20.77
2022-08-05T02:18:12.509Z,20.68
2022-08-05T02:18:30.855Z,20.68
2022-08-05T02:19:22.697Z,20.74
2022-08-05T02:20:22.273Z,20.68
2022-08-05T02:21:21.819Z,20.64
2022-08-05T02:22:26.471Z,20.61
2022-08-05T02:23:23.080Z,20.54
2022-08-05T02:24:23.399Z,20.49
2022-08-05T02:25:22.514Z,20.62
2022-08-05T02:26:23.296Z,20.64
2022-08-05T02:27:29.747Z,20.56
2022-08-05T02:28:28.616Z,20.65
2022-08-05T02:29:26.190Z,20.62
2022-08-05T02:30:24.545Z,20.65
2022-08-05T02:31:23.699Z,20.66
2022-08-05T02:32:29.414Z,20.69
2022-08-05T02:33:35.921Z,20.69
2022-08-05T02:34:25.290Z,20.76
2022-08-05T02:35:27.993Z,20.66
2022-08-05T02:36:24.678Z,20.61
2022-08-05T02:37:25.859Z,20.62
2022-08-05T02:38:25.421Z,20.65
2022-08-05T02:39:25.250Z,20.61
2022-08-05T02:40:25.990Z,20.65
2022-08-05T02:41:28.974Z,20.65
2022-08-05T02:42:30.722Z,20.59
2022-08-05T02:43:26.959Z,20.65
2022-08-05T02:44:26.087Z,20.61
2022-08-05T02:45:26.280Z,20.65
2022-08-05T02:46:27.617Z,20.62
2022-08-05T02:47:58.663Z,20.56
2022-08-05T02:48:29.143Z,20.66
2022-08-05T02:49:27.802Z,20.59
2022-08-05T02:50:28.317Z,20.66
2022-08-05T02:52:03.916Z,20.72
2022-08-05T02:52:30.425Z,20.59
2022-08-05T02:53:27.679Z,20.65
2022-08-05T02:54:35.651Z,20.65
2022-08-05T02:55:52.032Z,20.65
2022-08-05T02:56:29.284Z,20.59
2022-08-05T02:58:11.605Z,20.59
2022-08-05T02:58:29.975Z,20.51
2022-08-05T02:59:29.314Z,20.46
2022-08-05T03:00:30.814Z,20.28
2022-08-05T03:01:29.373Z,20.24
2022-08-05T03:02:29.280Z,20.21
2022-08-05T03:03:33.844Z,20.13
2022-08-05T03:04:30.602Z,20.02
2022-08-05T03:06:53.705Z,19.94
2022-08-05T03:06:56.031Z,19.91
2022-08-05T03:07:59.248Z,19.80
2022-08-05T03:08:31.295Z,19.97
2022-08-05T03:09:37.438Z,19.95
2022-08-05T03:10:31.828Z,19.93
2022-08-05T03:11:55.079Z,20.00
2022-08-05T03:12:31.957Z,20.02
2022-08-05T03:13:51.547Z,20.05
2022-08-05T03:14:32.839Z,20.12
2022-08-05T03:15:31.375Z,20.06
2022-08-05T03:16:32.314Z,20.15
2022-08-05T03:17:31.707Z,20.21
2022-08-05T03:18:31.896Z,20.18
2022-08-05T03:19:34.424Z,20.18
2022-08-05T03:20:32.825Z,20.23
2022-08-05T03:21:33.087Z,20.15
2022-08-05T03:22:34.321Z,20.13
2022-08-05T03:23:32.826Z,20.12
2022-08-05T03:24:33.825Z,20.06
2022-08-05T03:26:04.560Z,20.08
2022-08-05T03:26:35.488Z,19.94
2022-08-05T03:27:58.898Z,19.95
2022-08-05T03:28:34.808Z,19.93
2022-08-05T03:29:45.088Z,19.90
2022-08-05T03:30:35.114Z,19.83
2022-08-05T03:31:56.889Z,19.87
2022-08-05T03:32:35.850Z,19.84
2022-08-05T03:33:50.986Z,19.80
2022-08-05T03:34:35.721Z,19.88
2022-08-05T03:35:40.875Z,19.84
2022-08-05T03:36:36.040Z,19.87
2022-08-05T03:37:45.718Z,19.87
2022-08-05T03:38:37.523Z,19.73
2022-08-05T03:39:47.278Z,19.80
2022-08-05T03:40:37.919Z,19.79
2022-08-05T03:41:38.582Z,19.83
2022-08-05T03:42:41.645Z,19.86
2022-08-05T03:44:08.666Z,19.69
2022-08-05T03:44:37.525Z,19.68
2022-08-05T03:45:58.137Z,19.75
2022-08-05T03:46:38.345Z,19.61
2022-08-05T03:47:41.357Z,19.55
2022-08-05T03:48:37.305Z,19.51
2022-08-05T03:49:51.290Z,19.42
2022-08-05T03:50:38.667Z,19.23
2022-08-05T03:52:50.546Z,19.15
2022-08-05T03:54:58.556Z,19.13
2022-08-05T03:55:52.348Z,18.98
2022-08-05T03:56:01.011Z,18.98
2022-08-05T03:56:05.472Z,18.92
2022-08-05T03:56:41.308Z,18.90
2022-08-05T03:57:42.202Z,18.84
2022-08-05T03:59:12.480Z,18.80
2022-08-05T03:59:47.715Z,18.62
2022-08-05T04:00:41.872Z,18.58
2022-08-05T04:01:39.709Z,18.46
2022-08-05T04:02:45.192Z,18.49
2022-08-05T04:03:41.000Z,18.33
2022-08-05T04:04:41.238Z,18.13
2022-08-05T04:05:40.872Z,18.06
2022-08-05T04:06:42.805Z,18.10
2022-08-05T04:07:57.914Z,18.09
2022-08-05T04:08:42.370Z,18.07
2022-08-05T04:09:53.570Z,18.00
2022-08-05T04:10:42.157Z,17.91
2022-08-05T04:11:50.767Z,17.92
2022-08-05T04:12:43.362Z,17.74
2022-08-05T04:13:50.155Z,17.85
2022-08-05T04:14:42.740Z,17.81
2022-08-05T04:16:02.802Z,17.84
2022-08-05T04:16:43.121Z,17.84
2022-08-05T04:17:56.160Z,17.89
2022-08-05T04:18:43.495Z,17.79
2022-08-05T04:19:42.652Z,17.71
2022-08-05T04:20:43.370Z,17.74
2022-08-05T04:22:10.402Z,17.70
2022-08-05T04:22:44.055Z,17.74
2022-08-05T04:24:05.239Z,17.85
2022-08-05T04:24:52.806Z,17.91
2022-08-05T04:26:00.280Z,17.81
2022-08-05T04:26:44.654Z,17.85
2022-08-05T04:27:57.583Z,17.91
2022-08-05T04:28:51.009Z,17.89
2022-08-05T04:29:45.266Z,17.84
2022-08-05T04:30:44.392Z,17.70
2022-08-05T04:31:44.586Z,17.76
2022-08-05T04:32:44.825Z,17.76
2022-08-05T04:34:19.047Z,17.82
2022-08-05T04:34:46.136Z,17.84
2022-08-05T04:36:16.138Z,17.84
2022-08-05T04:36:50.108Z,17.95
2022-08-05T04:38:01.487Z,18.04
2022-08-05T04:38:46.841Z,18.00
2022-08-05T04:39:52.822Z,17.97
2022-08-05T04:40:50.719Z,17.99
2022-08-05T04:41:46.339Z,18.00
2022-08-05T04:42:47.381Z,18.02
2022-08-05T04:43:52.007Z,17.97
2022-08-05T04:44:47.912Z,17.97
2022-08-05T04:45:49.015Z,18.00
2022-08-05T04:46:48.507Z,18.22
2022-08-05T04:47:48.379Z,18.09
2022-08-05T04:48:48.380Z,18.19
2022-08-05T04:50:02.568Z,18.19
2022-08-05T04:51:01.630Z,18.25
2022-08-05T04:51:49.096Z,18.19
2022-08-05T04:52:49.884Z,18.18
2022-08-05T04:53:48.893Z,18.10
2022-08-05T04:54:49.336Z,18.25
2022-08-05T04:56:14.643Z,18.21
2022-08-05T04:56:50.109Z,18.18
2022-08-05T04:57:54.144Z,18.18
2022-08-05T04:58:50.487Z,18.15
2022-08-05T04:59:49.902Z,18.17
2022-08-05T05:00:50.686Z,18.22
2022-08-05T05:02:35.576Z,18.33
2022-08-05T05:02:51.235Z,18.36
2022-08-05T05:03:50.339Z,18.33
2022-08-05T05:04:51.445Z,18.42
2022-08-05T05:06:38.966Z,18.54
2022-08-05T05:06:57.568Z,18.59
2022-08-05T05:07:53.000Z,18.67
2022-08-05T05:08:51.886Z,18.54
2022-08-05T05:09:51.420Z,18.57
2022-08-05T05:10:56.466Z,18.49
2022-08-05T05:11:55.693Z,18.43
2022-08-05T05:12:52.913Z,18.61
2022-08-05T05:13:52.884Z,18.58
2022-08-05T05:14:52.250Z,18.67
2022-08-05T05:15:57.437Z,18.74
2022-08-05T05:16:54.863Z,18.68
2022-08-05T05:17:56.605Z,18.68
2022-08-05T05:19:17.553Z,18.70
2022-08-05T05:19:55.058Z,18.62
2022-08-05T05:20:53.398Z,18.62
2022-08-05T05:21:55.499Z,18.65
2022-08-05T05:22:53.580Z,18.58
2022-08-05T05:24:04.260Z,18.67
2022-08-05T05:24:57.842Z,18.70
2022-08-05T05:25:54.130Z,18.70
2022-08-05T05:26:54.310Z,18.73
2022-08-05T05:27:55.775Z,18.77
2022-08-05T05:28:54.718Z,18.80
2022-08-05T05:30:04.175Z,18.84
2022-08-05T05:30:56.056Z,18.87
2022-08-05T05:31:55.177Z,18.90
2022-08-05T05:32:55.428Z,18.86
2022-08-05T05:33:59.848Z,18.82
2022-08-05T05:34:57.397Z,18.83
2022-08-05T05:35:55.935Z,18.83
2022-08-05T05:36:56.049Z,18.82
2022-08-05T05:37:59.824Z,18.91
2022-08-05T05:38:57.527Z,18.95
2022-08-05T05:39:56.482Z,18.92
2022-08-05T05:40:56.917Z,18.86
2022-08-05T05:41:56.921Z,18.90
2022-08-05T05:42:57.161Z,18.91
2022-08-05T05:44:00.589Z,18.99
2022-08-05T05:44:59.613Z,19.06
2022-08-05T05:45:57.720Z,19.17
2022-08-05T05:46:58.226Z,19.14
2022-08-05T05:48:07.070Z,19.13
2022-08-05T05:48:59.909Z,19.21
2022-08-05T05:50:01.640Z,19.14
2022-08-05T05:50:58.543Z,19.15
2022-08-05T05:51:59.681Z,19.08
2022-08-05T05:52:58.806Z,19.05
2022-08-05T05:53:59.922Z,19.08
2022-08-05T05:55:00.211Z,19.11
2022-08-05T05:56:01.314Z,19.01
2022-08-05T05:56:59.618Z,19.05
2022-08-05T05:58:02.047Z,18.90
2022-08-05T05:59:03.566Z,18.92
2022-08-05T06:00:01.282Z,18.91
2022-08-05T06:01:02.092Z,18.82
2022-08-05T06:02:01.682Z,18.80
2022-08-05T06:03:00.904Z,18.70
2022-08-05T06:04:03.656Z,18.68
2022-08-05T06:05:03.488Z,18.67
2022-08-05T06:06:02.521Z,18.70
2022-08-05T06:07:02.400Z,18.64
2022-08-05T06:08:03.790Z,18.61
2022-08-05T06:09:03.810Z,18.65
2022-08-05T06:10:05.788Z,18.54
2022-08-05T06:11:04.403Z,18.42
2022-08-05T06:12:03.056Z,18.49
2022-08-05T06:13:03.405Z,18.49
2022-08-05T06:14:02.878Z,18.62
2022-08-05T06:15:02.996Z,18.42
2022-08-05T06:16:28.928Z,18.29
2022-08-05T06:17:22.359Z,18.37
2022-08-05T06:18:05.920Z,18.37
2022-08-05T06:19:05.735Z,18.39
2022-08-05T06:20:03.943Z,18.43
2022-08-05T06:21:04.910Z,18.43
2022-08-05T06:22:04.242Z,18.52
2022-08-05T06:23:05.438Z,18.61
2022-08-05T06:24:04.634Z,18.61
2022-08-05T06:25:25.223Z,18.64
2022-08-05T06:26:20.794Z,18.72
2022-08-05T06:27:06.271Z,18.76
2022-08-05T06:28:11.203Z,18.74
2022-08-05T06:29:25.481Z,18.84
2022-08-05T06:30:17.742Z,18.80
2022-08-05T06:31:11.293Z,18.95
2022-08-05T06:32:25.465Z,18.92
2022-08-05T06:33:09.876Z,19.01
2022-08-05T06:34:08.913Z,18.97
2022-08-05T06:35:21.699Z,19.05
2022-08-05T06:36:10.088Z,19.13
2022-08-05T06:37:07.043Z,19.05
2022-08-05T06:38:11.119Z,19.06
2022-08-05T06:39:07.449Z,18.86
2022-08-05T06:40:07.486Z,18.87
2022-08-05T06:41:08.448Z,18.82
2022-08-05T06:42:08.415Z,18.79
2022-08-05T06:43:57.604Z,18.73
2022-08-05T06:44:09.184Z,18.76
2022-08-05T06:45:09.194Z,18.67
2022-08-05T06:46:08.627Z,18.70
2022-08-05T06:47:10.208Z,18.79
2022-08-05T06:48:36.531Z,18.73
2022-08-05T06:49:10.121Z,18.80
2022-08-05T06:50:09.431Z,18.80
2022-08-05T06:51:12.093Z,18.86
2022-08-05T06:52:38.192Z,18.95
2022-08-05T06:53:22.744Z,19.10
2022-08-05T06:54:18.055Z,19.13
2022-08-05T06:55:11.289Z,19.25
2022-08-05T06:56:24.920Z,19.48
2022-08-05T06:57:56.845Z,19.46
2022-08-05T06:58:29.238Z,19.50
2022-08-05T06:59:12.133Z,19.65
2022-08-05T07:00:11.278Z,19.54
2022-08-05T07:01:11.471Z,19.60
2022-08-05T07:02:11.595Z,19.57
2022-08-05T07:03:11.723Z,19.57
2022-08-05T07:04:13.886Z,19.63
2022-08-05T07:05:18.558Z,19.72
2022-08-05T07:06:14.266Z,19.72
2022-08-05T07:07:12.416Z,19.83
2022-08-05T07:08:12.559Z,19.86
2022-08-05T07:09:13.905Z,19.70
2022-08-05T07:10:14.909Z,19.63
2022-08-05T07:11:15.115Z,19.68
2022-08-05T07:12:13.228Z,19.58
2022-08-05T07:13:13.924Z,19.65
2022-08-05T07:14:19.967Z,19.51
2022-08-05T07:15:17.330Z,19.58
2022-08-05T07:17:59.467Z,19.61
2022-08-05T07:17:59.794Z,19.60
2022-08-05T07:18:20.276Z,19.58
2022-08-05T07:19:44.312Z,19.68
2022-08-05T07:20:32.883Z,19.72
2022-08-05T07:21:16.983Z,19.66
2022-08-05T07:22:16.179Z,19.61
2022-08-05T07:23:29.180Z,19.47
2022-08-05T07:24:16.439Z,19.48
2022-08-05T07:25:54.165Z,19.36
2022-08-05T07:26:22.531Z,19.50
2022-08-05T07:27:17.881Z,19.51
2022-08-05T07:28:17.364Z,19.47
2022-08-05T07:29:16.349Z,19.47
2022-08-05T07:30:27.725Z,19.43
2022-08-05T07:31:17.685Z,19.46
2022-08-05T07:32:17.436Z,19.46
2022-08-05T07:33:17.930Z,19.46
2022-08-05T07:34:21.572Z,19.39
2022-08-05T07:35:55.614Z,19.42
2022-08-05T07:36:20.165Z,19.24
2022-08-05T07:37:17.652Z,19.33
2022-08-05T07:38:32.780Z,19.28
2022-08-05T07:39:24.848Z,19.21
2022-08-05T07:40:31.948Z,19.31
2022-08-05T07:42:14.288Z,19.14
2022-08-05T07:42:31.491Z,19.13
2022-08-05T07:43:21.267Z,19.02
2022-08-05T07:44:19.672Z,19.08
2022-08-05T07:45:19.124Z,19.06
2022-08-05T07:46:24.791Z,18.91
2022-08-05T07:47:20.704Z,18.87
2022-08-05T07:49:00.576Z,18.76
2022-08-05T07:49:21.047Z,18.77
2022-08-05T07:50:23.671Z,18.74
2022-08-05T07:51:23.288Z,18.82
2022-08-05T07:52:21.623Z,18.82
2022-08-05T07:53:20.814Z,18.79
2022-08-05T07:54:20.969Z,18.79
2022-08-05T07:56:04.846Z,18.80
2022-08-05T07:57:00.032Z,18.82
2022-08-05T07:57:55.263Z,18.80
2022-08-05T07:58:57.214Z,18.79
2022-08-05T07:59:31.069Z,18.64
2022-08-05T08:00:23.063Z,18.62
2022-08-05T08:01:23.299Z,18.68
2022-08-05T08:02:22.415Z,18.70
2022-08-05T08:03:22.576Z,18.70
2022-08-05T08:04:37.444Z,18.65
2022-08-05T08:05:23.910Z,18.67
2022-08-05T08:06:23.084Z,18.67
2022-08-05T08:07:24.717Z,18.59
2022-08-05T08:08:23.560Z,18.55
2022-08-05T08:09:23.715Z,18.55
2022-08-05T08:10:23.855Z,18.62
2022-08-05T08:11:27.691Z,18.49
2022-08-05T08:12:35.287Z,18.46
2022-08-05T08:13:28.986Z,18.43
2022-08-05T08:14:25.545Z,18.47
2022-08-05T08:15:37.381Z,18.47
2022-08-05T08:16:50.232Z,18.47
2022-08-05T08:17:27.938Z,18.55
2022-08-05T08:18:25.220Z,18.54
2022-08-05T08:20:21.495Z,18.70
2022-08-05T08:20:45.381Z,18.49
2022-08-05T08:21:26.824Z,18.47
2022-08-05T08:22:27.035Z,18.68
2022-08-05T08:24:01.279Z,18.61
2022-08-05T08:24:41.497Z,18.58
2022-08-05T08:26:00.698Z,18.65
2022-08-05T08:26:29.754Z,18.59
2022-08-05T08:27:35.696Z,18.55
2022-08-05T08:28:35.737Z,18.49
2022-08-05T08:30:05.425Z,18.47
2022-08-05T08:30:37.671Z,18.52
2022-08-05T08:31:28.723Z,18.50
2022-08-05T08:32:28.488Z,18.57
2022-08-05T08:33:28.096Z,18.55
2022-08-05T08:34:30.637Z,18.57
2022-08-05T08:35:28.391Z,18.55
2022-08-05T08:36:48.785Z,18.25
2022-08-05T08:37:29.704Z,18.25
2022-08-05T08:38:35.395Z,18.19
2022-08-05T08:39:29.998Z,18.15
2022-08-05T08:40:29.958Z,18.15
2022-08-05T08:41:52.579Z,18.22
2022-08-05T08:42:34.113Z,18.13
2022-08-05T08:45:21.057Z,18.21
2022-08-05T08:45:23.973Z,18.19
2022-08-05T08:45:31.185Z,18.19
2022-08-05T08:46:30.480Z,18.24
2022-08-05T08:48:06.205Z,18.19
2022-08-05T08:49:02.916Z,18.19
2022-08-05T08:50:22.915Z,18.17
2022-08-05T08:51:03.389Z,18.15
2022-08-05T08:52:02.981Z,18.15
2022-08-05T08:52:32.457Z,18.10
2022-08-05T08:53:31.585Z,18.10
2022-08-05T08:54:31.704Z,18.02
2022-08-05T08:56:05.252Z,18.07
2022-08-05T08:56:33.190Z,17.89
2022-08-05T08:57:42.259Z,17.94
2022-08-05T08:58:37.458Z,17.95
2022-08-05T08:59:34.463Z,17.99
2022-08-05T09:00:32.850Z,17.95
2022-08-05T09:01:32.976Z,17.91
2022-08-05T09:02:33.473Z,17.92
2022-08-05T09:03:40.729Z,17.99
2022-08-05T09:04:34.584Z,18.00
2022-08-05T09:05:38.642Z,17.97
2022-08-05T09:06:36.372Z,18.02
2022-08-05T09:07:40.102Z,17.97
2022-08-05T09:08:35.181Z,17.92
2022-08-05T09:09:35.593Z,17.87
2022-08-05T09:10:34.590Z,17.87
2022-08-05T09:11:52.748Z,17.91
2022-08-05T09:12:35.943Z,17.79
2022-08-05T09:14:00.700Z,17.73
2022-08-05T09:14:57.272Z,17.82
2022-08-05T09:15:37.356Z,17.78
2022-08-05T09:16:36.483Z,17.82
2022-08-05T09:17:42.810Z,17.84
2022-08-05T09:18:40.098Z,17.81
2022-08-05T09:20:01.810Z,17.70
2022-08-05T09:20:38.285Z,17.69
2022-08-05T09:22:22.077Z,17.70
2022-08-05T09:22:38.217Z,17.81
2022-08-05T09:23:43.852Z,17.82
2022-08-05T09:24:38.104Z,17.79
2022-08-05T09:26:02.570Z,17.73
2022-08-05T09:26:38.334Z,17.70
2022-08-05T09:28:05.174Z,17.73
2022-08-05T09:28:38.777Z,17.71
2022-08-05T09:29:47.556Z,17.43
2022-08-05T09:30:39.171Z,17.29
2022-08-05T09:32:42.124Z,17.26
2022-08-05T09:32:46.198Z,17.32
2022-08-05T09:33:40.473Z,17.33
2022-08-05T09:34:38.836Z,17.32
2022-08-05T09:35:40.009Z,17.29
2022-08-05T09:36:54.323Z,17.32
2022-08-05T09:38:12.237Z,17.43
2022-08-05T09:38:40.513Z,17.26
2022-08-05T09:39:45.613Z,17.18
2022-08-05T09:40:51.803Z,17.13
2022-08-05T09:41:41.093Z,16.98
2022-08-05T09:42:40.283Z,16.99
2022-08-05T09:43:42.212Z,17.04
2022-08-05T09:44:41.473Z,16.98
2022-08-05T09:46:06.524Z,16.90
2022-08-05T09:46:51.689Z,16.89
2022-08-05T09:47:55.350Z,16.92
2022-08-05T09:48:42.372Z,16.86
2022-08-05T09:50:02.109Z,16.90
2022-08-05T09:50:44.168Z,16.93
2022-08-05T09:51:41.765Z,16.75
2022-08-05T09:52:45.148Z,16.88
2022-08-05T09:53:54.744Z,16.93
2022-08-05T09:54:43.218Z,16.95
2022-08-05T09:55:56.125Z,16.85
2022-08-05T09:56:51.644Z,16.74
2022-08-05T09:57:44.480Z,16.75
2022-08-05T09:58:42.777Z,16.74
2022-08-05T09:59:43.005Z,16.73
2022-08-05T10:00:43.985Z,16.85
2022-08-05T10:01:45.733Z,16.90
2022-08-05T10:02:44.033Z,16.86
2022-08-05T10:03:58.750Z,16.93
2022-08-05T10:04:44.819Z,16.86
2022-08-05T10:05:44.081Z,16.88
2022-08-05T10:06:54.815Z,16.81
2022-08-05T10:07:50.525Z,16.80
2022-08-05T10:08:53.892Z,16.92
2022-08-05T10:09:45.752Z,16.80
2022-08-05T10:10:44.864Z,16.92
2022-08-05T10:11:45.061Z,16.88
2022-08-05T10:12:49.182Z,16.78
2022-08-05T10:13:48.202Z,16.80
2022-08-05T10:14:46.484Z,16.78
2022-08-05T10:15:46.488Z,16.78
2022-08-05T10:16:52.778Z,16.74
2022-08-05T10:17:54.602Z,16.59
2022-08-05T10:18:48.405Z,16.70
2022-08-05T10:20:04.338Z,16.70
2022-08-05T10:20:48.412Z,16.77
2022-08-05T10:21:46.857Z,16.70
2022-08-05T10:22:48.743Z,16.71
2022-08-05T10:23:59.725Z,16.83
2022-08-05T10:24:48.290Z,16.58
2022-08-05T10:25:47.463Z,16.70
2022-08-05T10:26:52.072Z,16.55
2022-08-05T10:28:13.147Z,16.60
2022-08-05T10:28:49.069Z,16.52
2022-08-05T10:30:41.046Z,16.58
2022-08-05T10:32:48.135Z,16.48
2022-08-05T10:32:54.348Z,16.53
2022-08-05T10:33:00.630Z,16.62
2022-08-05T10:33:52.409Z,16.62
2022-08-05T10:34:49.140Z,16.63
2022-08-05T10:35:58.942Z,16.75
2022-08-05T10:36:52.496Z,16.77
2022-08-05T10:37:49.732Z,16.81
2022-08-05T10:38:49.946Z,16.75
2022-08-05T10:39:59.236Z,16.65
2022-08-05T10:40:51.548Z,16.70
2022-08-05T10:41:50.449Z,16.74
2022-08-05T10:42:50.655Z,16.68
2022-08-05T10:43:51.501Z,16.65
2022-08-05T10:44:51.007Z,16.58
2022-08-05T10:45:51.170Z,16.52
2022-08-05T10:46:54.301Z,16.56
2022-08-05T10:48:27.565Z,16.49
2022-08-05T10:48:57.892Z,16.60
2022-08-05T10:50:33.061Z,16.62
2022-08-05T10:50:53.032Z,16.44
2022-08-05T10:51:58.290Z,16.44
2022-08-05T10:52:53.412Z,16.55
2022-08-05T10:53:54.461Z,16.50
2022-08-05T10:54:56.067Z,16.53
2022-08-05T10:56:04.894Z,16.62
2022-08-05T10:56:54.213Z,16.65
2022-08-05T10:57:53.380Z,16.73
2022-08-05T10:58:53.565Z,16.81
2022-08-05T11:00:03.372Z,16.75
2022-08-05T11:01:02.823Z,16.74
2022-08-05T11:02:04.639Z,16.88
2022-08-05T11:02:56.061Z,16.80
2022-08-05T11:03:54.370Z,16.88
2022-08-05T11:04:55.011Z,16.88
2022-08-05T11:05:54.729Z,16.93
2022-08-05T11:06:56.505Z,16.93
2022-08-05T11:08:03.181Z,16.90
2022-08-05T11:08:57.002Z,16.89
2022-08-05T11:10:07.723Z,16.95
2022-08-05T11:11:00.853Z,16.93
2022-08-05T11:11:56.749Z,16.96
2022-08-05T11:12:56.402Z,17.04
2022-08-05T11:13:58.390Z,17.08
2022-08-05T11:15:11.586Z,17.04
2022-08-05T11:16:01.217Z,17.15
2022-08-05T11:17:01.152Z,17.13
2022-08-05T11:18:03.753Z,17.11
2022-08-05T11:18:57.999Z,17.06
2022-08-05T11:20:16.575Z,17.15
2022-08-05T11:20:59.227Z,17.07
2022-08-05T11:21:57.911Z,17.00
2022-08-05T11:23:02.002Z,17.06
2022-08-05T11:24:04.360Z,17.11
2022-08-05T11:25:16.596Z,17.15
2022-08-05T11:26:05.453Z,17.20
2022-08-05T11:26:59.592Z,17.20
2022-08-05T11:28:00.546Z,17.20
2022-08-05T11:29:11.817Z,17.26
2022-08-05T11:30:01.218Z,17.26
2022-08-05T11:30:59.438Z,17.30
2022-08-05T11:32:01.174Z,17.28
2022-08-05T11:32:59.805Z,17.11
2022-08-05T11:34:00.019Z,17.11
2022-08-05T11:35:00.115Z,17.15
2022-08-05T11:36:04.448Z,17.08
2022-08-05T11:37:01.542Z,17.14
2022-08-05T11:38:30.350Z,17.08
2022-08-05T11:39:02.049Z,17.23
2022-08-05T11:40:03.463Z,17.13
2022-08-05T11:41:14.181Z,17.20
2022-08-05T11:42:04.839Z,17.08
2022-08-05T11:43:01.710Z,17.08
2022-08-05T11:44:07.146Z,17.15
2022-08-05T11:45:03.173Z,17.14
2022-08-05T11:46:30.631Z,17.23
2022-08-05T11:47:11.098Z,17.32
2022-08-05T11:48:03.865Z,17.32
2022-08-05T11:49:03.073Z,17.30
2022-08-05T11:50:03.538Z,17.38
2022-08-05T11:51:03.372Z,17.25
2022-08-05T11:52:11.421Z,17.32
2022-08-05T11:53:04.801Z,17.40
2022-08-05T11:54:05.102Z,17.36
2022-08-05T11:55:07.740Z,17.44
2022-08-05T11:56:05.530Z,17.50
2022-08-05T11:57:08.077Z,17.62
2022-08-05T11:58:08.038Z,17.73
2022-08-05T11:59:05.982Z,17.79
2022-08-05T12:00:06.230Z,17.78
2022-08-05T12:01:08.441Z,17.84
2022-08-05T12:02:07.527Z,17.84
2022-08-05T12:03:06.769Z,17.78
2022-08-05T12:04:05.917Z,17.79
2022-08-05T12:05:06.762Z,17.88
2022-08-05T12:06:09.832Z,17.87
2022-08-05T12:07:06.543Z,17.89
2022-08-05T12:08:10.045Z,17.69
2022-08-05T12:09:06.946Z,17.76
2022-08-05T12:10:09.170Z,17.85
2022-08-05T12:11:08.030Z,17.81
2022-08-05T12:12:07.519Z,17.94
2022-08-05T12:13:15.633Z,17.95
2022-08-05T12:14:10.261Z,18.02
2022-08-05T12:15:08.090Z,18.09
2022-08-05T12:16:14.542Z,18.09
2022-08-05T12:17:42.229Z,18.12
2022-08-05T12:18:11.958Z,18.24
2022-08-05T12:19:08.949Z,18.33
2022-08-05T12:20:16.634Z,18.34
2022-08-05T12:21:10.269Z,18.36
2022-08-05T12:22:10.055Z,18.36
2022-08-05T12:23:10.528Z,18.44
2022-08-05T12:24:09.875Z,18.50
2022-08-05T12:25:09.887Z,18.54
2022-08-05T12:26:11.123Z,18.52
2022-08-05T12:27:21.539Z,18.64
2022-08-05T12:28:12.029Z,18.80
2022-08-05T12:29:15.890Z,18.91
2022-08-05T12:30:15.354Z,19.31
2022-08-05T12:31:12.036Z,19.28
2022-08-05T12:32:12.244Z,19.20
2022-08-05T12:33:27.195Z,19.14
2022-08-05T12:34:20.614Z,19.15
2022-08-05T12:35:13.528Z,19.01
2022-08-05T12:36:12.136Z,18.90
2022-08-05T12:37:16.241Z,18.90
2022-08-05T12:38:13.466Z,18.91
2022-08-05T12:39:12.700Z,19.01
2022-08-05T12:40:26.606Z,18.92
2022-08-05T12:41:14.159Z,19.13
2022-08-05T12:42:14.712Z,19.32
2022-08-05T12:43:20.985Z,19.72
2022-08-05T12:44:33.021Z,19.72
2022-08-05T12:45:14.672Z,19.66
2022-08-05T12:46:14.542Z,19.75
2022-08-05T12:47:25.562Z,19.78
2022-08-05T12:48:26.828Z,19.98
2022-08-05T12:49:16.033Z,19.97
2022-08-05T12:50:14.579Z,19.84
2022-08-05T12:51:21.809Z,19.60
2022-08-05T12:52:23.848Z,19.79
2022-08-05T12:53:16.204Z,19.93
2022-08-05T12:54:23.504Z,20.00
2022-08-05T12:55:17.048Z,20.05